createdAt,value
2022-08-22T00:00:43.863Z,3.40
2022-08-22T00:02:47.779Z,4.40
2022-08-22T00:02:58.023Z,4.00
2022-08-22T00:03:02.036Z,3.40
2022-08-22T00:03:31.128Z,3.70
2022-08-22T00:06:24.543Z,3.60
2022-08-22T00:09:49.243Z,3.20
2022-08-22T00:12:30.509Z,3.30
2022-08-22T00:15:42.005Z,3.20
2022-08-22T00:18:34.944Z,3.50
2022-08-22T00:21:12.857Z,3.70
2022-08-22T00:24:05.297Z,3.30
2022-08-22T00:26:45.430Z,3.70
2022-08-22T00:29:32.466Z,3.50
2022-08-22T00:32:11.092Z,3.50
2022-08-22T00:35:03.225Z,3.50
2022-08-22T00:37:37.746Z,4.00
2022-08-22T00:40:20.222Z,3.70
2022-08-22T00:43:14.435Z,3.40
2022-08-22T00:46:27.494Z,3.90
2022-08-22T00:49:22.880Z,3.80
2022-08-22T00:52:08.456Z,3.40
2022-08-22T00:54:58.754Z,3.20
2022-08-22T00:57:35.628Z,3.10
2022-08-22T01:00:13.632Z,2.90
2022-08-22T01:02:52.308Z,3.40
2022-08-22T01:05:42.096Z,3.30
2022-08-22T01:08:22.391Z,3.70
2022-08-22T01:11:30.099Z,3.60
2022-08-22T01:14:20.083Z,3.70
2022-08-22T01:17:35.178Z,4.30
2022-08-22T01:20:31.180Z,3.90
2022-08-22T01:23:17.791Z,4.10
2022-08-22T01:26:08.077Z,4.30
2022-08-22T01:29:08.528Z,3.80
2022-08-22T01:32:07.950Z,3.80
2022-08-22T01:34:57.088Z,3.70
2022-08-22T01:37:43.949Z,3.80
2022-08-22T01:40:54.289Z,3.90
2022-08-22T01:44:01.166Z,3.80
2022-08-22T01:47:00.239Z,4.10
2022-08-22T01:49:35.708Z,4.00
2022-08-22T01:52:15.944Z,3.70
2022-08-22T01:54:59.269Z,3.80
2022-08-22T01:57:27.875Z,3.60
2022-08-22T01:59:59.665Z,4.10
2022-08-22T02:02:44.898Z,4.10
2022-08-22T02:05:18.821Z,3.30
2022-08-22T02:08:03.966Z,3.90
2022-08-22T02:10:40.852Z,3.60
2022-08-22T02:13:14.961Z,3.70
2022-08-22T02:16:01.668Z,3.70
2022-08-22T02:19:00.919Z,3.80
2022-08-22T02:21:46.350Z,3.80
2022-08-22T02:24:26.698Z,3.90
2022-08-22T02:27:05.334Z,3.70
2022-08-22T02:30:00.518Z,4.20
2022-08-22T02:32:32.192Z,3.30
2022-08-22T02:35:00.265Z,3.30
2022-08-22T02:37:47.592Z,3.30
2022-08-22T02:40:34.501Z,3.40
2022-08-22T02:43:19.576Z,3.40
2022-08-22T02:45:58.196Z,3.70
2022-08-22T02:48:53.635Z,3.20
2022-08-22T02:51:50.584Z,3.40
2022-08-22T02:54:18.630Z,3.80
2022-08-22T02:57:03.529Z,3.60
2022-08-22T02:59:38.517Z,3.80
2022-08-22T03:02:26.468Z,3.40
2022-08-22T03:05:23.006Z,3.10
2022-08-22T03:08:05.850Z,3.60
2022-08-22T03:10:41.273Z,4.60
2022-08-22T03:13:31.315Z,4.50
2022-08-22T03:16:22.771Z,4.60
2022-08-22T03:19:01.900Z,3.80
2022-08-22T03:21:41.631Z,4.20
2022-08-22T03:24:34.514Z,4.40
2022-08-22T03:27:39.336Z,4.20
2022-08-22T03:30:31.066Z,4.30
2022-08-22T03:33:24.120Z,5.00
2022-08-22T03:35:57.959Z,6.20
2022-08-22T03:38:32.245Z,5.60
2022-08-22T03:41:09.429Z,5.40
2022-08-22T03:44:00.474Z,5.50
2022-08-22T03:46:52.885Z,5.10
2022-08-22T03:49:39.696Z,4.60
2022-08-22T03:52:22.817Z,4.50
2022-08-22T03:55:09.571Z,4.40
2022-08-22T03:57:44.564Z,4.00
2022-08-22T04:00:43.173Z,3.90
2022-08-22T04:03:36.156Z,4.20
2022-08-22T04:06:27.466Z,4.80
2022-08-22T04:09:10.439Z,4.20
2022-08-22T04:11:39.543Z,4.60
2022-08-22T04:14:55.074Z,4.10
2022-08-22T04:17:35.283Z,4.00
2022-08-22T04:20:31.818Z,3.90
2022-08-22T04:23:09.927Z,4.40
2022-08-22T04:25:47.830Z,4.90
2022-08-22T04:28:22.996Z,4.80
2022-08-22T04:30:56.708Z,4.00
2022-08-22T04:33:29.660Z,4.40
2022-08-22T04:36:13.559Z,4.30
2022-08-22T04:38:48.856Z,4.00
2022-08-22T04:41:24.624Z,4.20
2022-08-22T04:44:08.336Z,4.90
2022-08-22T04:47:19.006Z,4.30
2022-08-22T04:50:15.135Z,4.50
2022-08-22T04:52:52.748Z,4.90
2022-08-22T04:55:51.647Z,5.70
2022-08-22T04:58:41.400Z,5.40
2022-08-22T05:01:16.915Z,5.20
2022-08-22T05:04:18.913Z,5.50
2022-08-22T05:06:54.381Z,5.40
2022-08-22T05:09:31.219Z,5.10
2022-08-22T05:12:05.802Z,5.30
2022-08-22T05:14:40.675Z,5.40
2022-08-22T05:17:15.552Z,4.50
2022-08-22T05:19:50.972Z,4.60
2022-08-22T05:22:24.717Z,5.10
2022-08-22T05:24:59.526Z,5.10
2022-08-22T05:27:35.861Z,4.60
2022-08-22T05:30:21.204Z,4.30
2022-08-22T05:33:00.995Z,4.40
2022-08-22T05:35:38.074Z,5.10
2022-08-22T05:38:12.237Z,4.70
2022-08-22T05:40:41.433Z,5.80
2022-08-22T05:43:13.456Z,5.40
2022-08-22T05:45:46.432Z,5.00
2022-08-22T05:48:23.115Z,5.50
2022-08-22T05:51:12.176Z,5.20
2022-08-22T05:53:44.957Z,5.30
2022-08-22T05:56:23.989Z,5.50
2022-08-22T05:59:04.141Z,5.60
2022-08-22T06:01:58.994Z,5.10
2022-08-22T06:04:50.295Z,5.10
2022-08-22T06:07:28.467Z,4.70
2022-08-22T06:10:19.476Z,4.80
2022-08-22T06:13:34.346Z,4.70
2022-08-22T06:16:27.714Z,4.80
2022-08-22T06:18:58.150Z,4.80
2022-08-22T06:21:38.568Z,5.30
2022-08-22T06:24:13.580Z,5.00
2022-08-22T06:26:48.573Z,5.70
2022-08-22T06:29:42.853Z,5.50
2022-08-22T06:32:16.152Z,4.60
2022-08-22T06:34:47.085Z,5.30
2022-08-22T06:37:31.867Z,4.00
2022-08-22T06:40:02.863Z,3.80
2022-08-22T06:42:33.912Z,4.50
2022-08-22T06:45:12.480Z,4.50
2022-08-22T06:47:49.919Z,4.00
2022-08-22T06:50:25.411Z,4.10
2022-08-22T06:53:08.313Z,4.10
2022-08-22T06:55:40.601Z,4.70
2022-08-22T06:58:22.886Z,4.70
2022-08-22T07:01:05.754Z,5.00
2022-08-22T07:03:58.449Z,4.20
2022-08-22T07:06:34.932Z,4.60
2022-08-22T07:09:06.980Z,5.00
2022-08-22T07:11:39.769Z,4.40
2022-08-22T07:14:12.444Z,4.60
2022-08-22T07:16:40.416Z,4.70
2022-08-22T07:19:21.956Z,5.20
2022-08-22T07:21:50.032Z,4.90
2022-08-22T07:24:23.318Z,4.80
2022-08-22T07:27:17.129Z,4.90
2022-08-22T07:30:04.047Z,5.30
2022-08-22T07:32:47.999Z,5.10
2022-08-22T07:35:27.202Z,5.00
2022-08-22T07:38:10.463Z,5.00
2022-08-22T07:41:00.447Z,8.90
2022-08-22T07:43:38.245Z,6.20
2022-08-22T07:46:27.722Z,5.60
2022-08-22T07:49:21.952Z,5.70
2022-08-22T07:51:54.541Z,5.40
2022-08-22T07:54:37.122Z,7.10
2022-08-22T07:57:27.705Z,5.90
2022-08-22T08:00:00.175Z,6.50
2022-08-22T08:02:28.980Z,6.00
2022-08-22T08:05:00.613Z,6.10
2022-08-22T08:07:30.248Z,5.90
2022-08-22T08:10:12.760Z,6.00
2022-08-22T08:13:00.559Z,5.80
2022-08-22T08:15:34.989Z,6.00
2022-08-22T08:18:08.944Z,5.90
2022-08-22T08:20:38.506Z,5.60
2022-08-22T08:23:10.712Z,5.70
2022-08-22T08:26:06.387Z,5.80
2022-08-22T08:28:41.881Z,6.70
2022-08-22T08:31:45.001Z,5.90
2022-08-22T08:34:23.479Z,5.70
2022-08-22T08:37:20.803Z,6.00
2022-08-22T08:39:52.197Z,6.20
2022-08-22T08:42:58.935Z,6.20
2022-08-22T08:45:56.418Z,6.00
2022-08-22T08:48:36.240Z,6.60
2022-08-22T08:51:23.431Z,6.40
2022-08-22T08:54:31.981Z,5.70
2022-08-22T08:57:08.858Z,6.10
2022-08-22T08:59:45.452Z,6.70
2022-08-22T09:02:48.238Z,5.80
2022-08-22T09:05:17.043Z,5.20
2022-08-22T09:08:03.303Z,6.20
2022-08-22T09:10:51.357Z,5.10
2022-08-22T09:13:51.569Z,5.50
2022-08-22T09:16:22.498Z,5.40
2022-08-22T09:19:29.288Z,5.40
2022-08-22T09:22:14.261Z,5.80
2022-08-22T09:25:07.521Z,6.20
2022-08-22T09:27:54.195Z,5.40
2022-08-22T09:30:31.411Z,5.10
2022-08-22T09:33:06.395Z,5.60
2022-08-22T09:36:01.083Z,5.00
2022-08-22T09:38:39.172Z,5.50
2022-08-22T09:41:24.878Z,5.40
2022-08-22T09:44:31.223Z,5.50
2022-08-22T09:47:24.998Z,5.60
2022-08-22T09:50:06.618Z,5.30
2022-08-22T09:52:56.550Z,5.20
2022-08-22T09:55:39.405Z,6.20
2022-08-22T09:58:28.557Z,5.30
2022-08-22T10:01:11.971Z,6.20
2022-08-22T10:03:46.182Z,4.60
2022-08-22T10:06:23.691Z,5.10
2022-08-22T10:09:31.346Z,5.10
2022-08-22T10:12:15.301Z,5.10
2022-08-22T10:15:16.058Z,4.70
2022-08-22T10:17:58.903Z,4.70
2022-08-22T10:20:54.312Z,4.80
2022-08-22T10:23:47.061Z,4.70
2022-08-22T10:26:22.897Z,4.40
2022-08-22T10:29:04.199Z,4.30
2022-08-22T10:31:51.067Z,4.30
2022-08-22T10:34:36.986Z,4.40
2022-08-22T10:37:51.096Z,4.40
2022-08-22T10:40:28.819Z,4.60
2022-08-22T10:43:13.101Z,4.30
2022-08-22T10:45:46.533Z,4.10
2022-08-22T10:48:25.734Z,4.60
2022-08-22T10:51:16.547Z,4.10
2022-08-22T10:54:25.646Z,4.00
2022-08-22T10:57:13.101Z,3.80
2022-08-22T10:59:54.408Z,3.70
2022-08-22T11:02:31.130Z,4.20
2022-08-22T11:05:39.404Z,3.90
2022-08-22T11:08:29.121Z,4.00
2022-08-22T11:11:14.397Z,4.10
2022-08-22T11:13:55.472Z,3.70
2022-08-22T11:16:44.439Z,3.90
2022-08-22T11:19:36.472Z,4.00
2022-08-22T11:22:13.347Z,3.70
2022-08-22T11:25:06.504Z,3.90
2022-08-22T11:27:46.382Z,3.50
2022-08-22T11:30:44.018Z,3.70
2022-08-22T11:33:47.220Z,3.80
2022-08-22T11:36:34.257Z,3.60
2022-08-22T11:39:41.105Z,3.90
2022-08-22T11:44:56.774Z,3.80
2022-08-22T11:47:40.963Z,3.80
2022-08-22T11:50:35.191Z,3.70
2022-08-22T11:53:09.197Z,3.70
2022-08-22T11:56:05.457Z,3.90
2022-08-22T11:58:45.749Z,3.80
2022-08-22T12:01:41.900Z,3.70
2022-08-22T12:04:18.347Z,4.50
2022-08-22T12:06:50.780Z,3.90
2022-08-22T12:09:41.525Z,4.30
2022-08-22T12:12:33.967Z,4.30
2022-08-22T12:15:13.124Z,3.80
2022-08-22T12:18:00.998Z,3.60
2022-08-22T12:20:57.166Z,3.80
2022-08-22T12:23:49.376Z,3.90
2022-08-22T12:26:31.409Z,3.30
2022-08-22T12:29:44.621Z,3.30
2022-08-22T12:32:45.914Z,3.30
2022-08-22T12:35:40.281Z,3.40
2022-08-22T12:38:42.187Z,3.30
2022-08-22T12:41:37.754Z,3.50
2022-08-22T12:44:20.884Z,3.40
2022-08-22T12:47:13.053Z,3.50
2022-08-22T12:50:02.289Z,3.70
2022-08-22T12:52:47.560Z,3.10
2022-08-22T12:55:43.223Z,3.90
2022-08-22T12:58:14.222Z,3.60
2022-08-22T13:00:47.646Z,3.30
2022-08-22T13:03:28.577Z,3.30
2022-08-22T13:06:03.014Z,3.40
2022-08-22T13:08:38.867Z,3.40
2022-08-22T13:11:22.627Z,3.50
2022-08-22T13:13:58.073Z,3.80
2022-08-22T13:16:37.796Z,4.20
2022-08-22T13:19:17.066Z,3.60
2022-08-22T13:22:01.286Z,3.50
2022-08-22T13:24:56.845Z,3.70
2022-08-22T13:27:41.044Z,3.50
2022-08-22T13:30:26.263Z,3.80
2022-08-22T13:33:03.721Z,3.60
2022-08-22T13:35:52.809Z,3.80
2022-08-22T13:38:38.773Z,3.90
2022-08-22T13:41:23.913Z,3.80
2022-08-22T13:44:16.811Z,4.00
2022-08-22T13:47:12.807Z,3.90
2022-08-22T13:49:44.631Z,3.80
2022-08-22T13:52:29.119Z,3.90
2022-08-22T13:55:14.100Z,4.40
2022-08-22T13:57:55.370Z,4.20
2022-08-22T14:00:35.952Z,4.00
2022-08-22T14:03:09.748Z,4.40
2022-08-22T14:05:46.574Z,3.80
2022-08-22T14:08:18.648Z,4.50
2022-08-22T14:10:55.759Z,4.60
2022-08-22T14:13:37.779Z,4.40
2022-08-22T14:16:12.078Z,4.20
2022-08-22T14:18:50.252Z,3.90
2022-08-22T14:21:40.351Z,3.80
2022-08-22T14:24:26.927Z,4.40
2022-08-22T14:29:32.249Z,4.40
2022-08-22T14:32:32.563Z,4.80
2022-08-22T14:35:25.423Z,4.20
2022-08-22T14:38:30.812Z,4.00
2022-08-22T14:41:17.185Z,4.00
2022-08-22T14:43:59.802Z,4.10
2022-08-22T14:46:38.929Z,3.90
2022-08-22T14:49:20.426Z,4.20
2022-08-22T14:52:02.111Z,4.00
2022-08-22T14:54:32.231Z,4.00
2022-08-22T14:57:10.378Z,3.80
2022-08-22T14:59:38.735Z,3.40
2022-08-22T15:02:30.035Z,4.00
2022-08-22T15:05:14.599Z,3.70
2022-08-22T15:07:43.097Z,3.80
2022-08-22T15:10:26.307Z,3.90
2022-08-22T15:13:08.042Z,3.70
2022-08-22T15:15:53.495Z,5.30
2022-08-22T15:18:26.974Z,2.80
2022-08-22T15:21:09.963Z,3.10
2022-08-22T15:23:44.817Z,1.70
2022-08-22T15:26:38.694Z,2.20
2022-08-22T15:29:28.097Z,2.00
2022-08-22T15:32:02.366Z,1.70
2022-08-22T15:34:44.496Z,1.90
2022-08-22T15:37:18.393Z,2.20
2022-08-22T15:40:12.499Z,3.00
2022-08-22T15:42:51.296Z,3.20
2022-08-22T15:45:33.925Z,2.70
2022-08-22T15:48:07.946Z,2.90
2022-08-22T15:50:55.924Z,2.60
2022-08-22T15:53:33.605Z,2.90
2022-08-22T15:56:11.359Z,3.20
2022-08-22T15:58:48.744Z,3.20
2022-08-22T16:01:24.563Z,4.00
2022-08-22T16:04:02.193Z,3.20
2022-08-22T16:06:42.367Z,3.80
2022-08-22T16:09:32.978Z,3.60
2022-08-22T16:12:06.145Z,3.80
2022-08-22T16:14:34.031Z,4.50
2022-08-22T16:17:26.657Z,3.70
2022-08-22T16:20:19.499Z,4.10
2022-08-22T16:22:57.573Z,3.80
2022-08-22T16:25:50.373Z,3.90
2022-08-22T16:28:54.241Z,3.30
2022-08-22T16:31:30.954Z,3.40
2022-08-22T16:34:26.567Z,4.00
2022-08-22T16:37:03.893Z,4.00
2022-08-22T16:39:37.934Z,4.90
2022-08-22T16:42:15.181Z,3.40
2022-08-22T16:44:47.938Z,3.80
2022-08-22T16:47:18.169Z,3.40
2022-08-22T16:49:52.250Z,3.30
2022-08-22T16:52:26.280Z,3.30
2022-08-22T16:55:00.484Z,3.80
2022-08-22T16:58:04.936Z,3.00
2022-08-22T17:00:36.483Z,3.00
2022-08-22T17:03:43.973Z,3.40
2022-08-22T17:06:38.211Z,6.40
2022-08-22T17:09:41.358Z,3.70
2022-08-22T17:12:17.252Z,4.00
2022-08-22T17:17:51.546Z,3.40
2022-08-22T17:20:45.427Z,3.30
2022-08-22T17:23:38.307Z,3.50
2022-08-22T17:26:29.490Z,5.20
2022-08-22T17:29:23.779Z,3.10
2022-08-22T17:31:59.738Z,3.00
2022-08-22T17:34:39.071Z,4.30
2022-08-22T17:37:39.397Z,3.70
2022-08-22T17:40:31.348Z,3.70
2022-08-22T17:43:20.499Z,4.00
2022-08-22T17:46:13.655Z,3.30
2022-08-22T17:49:12.554Z,4.00
2022-08-22T17:51:49.529Z,3.30
2022-08-22T17:54:24.564Z,3.10
2022-08-22T17:57:05.034Z,3.70
2022-08-22T17:59:46.050Z,3.30
2022-08-22T18:02:22.265Z,3.50
2022-08-22T18:05:17.990Z,3.60
2022-08-22T18:07:52.184Z,4.70
2022-08-22T18:10:55.606Z,5.20
2022-08-22T18:14:00.234Z,4.70
2022-08-22T18:16:42.335Z,4.30
2022-08-22T18:19:48.046Z,4.30
2022-08-22T18:22:40.329Z,3.80
2022-08-22T18:25:36.763Z,3.70
2022-08-22T18:28:34.123Z,4.00
2022-08-22T18:31:08.790Z,3.80
2022-08-22T18:33:56.068Z,3.90
2022-08-22T18:36:31.248Z,3.40
2022-08-22T18:39:20.887Z,4.00
2022-08-22T18:41:57.510Z,3.80
2022-08-22T18:44:31.199Z,4.40
2022-08-22T18:47:21.716Z,3.90
2022-08-22T18:49:54.483Z,3.50
2022-08-22T18:52:35.383Z,3.80
2022-08-22T18:55:18.442Z,3.40
2022-08-22T18:58:09.757Z,3.30
2022-08-22T19:00:50.114Z,3.50
2022-08-22T19:03:45.164Z,4.40
2022-08-22T19:06:13.903Z,3.80
2022-08-22T19:09:03.787Z,4.40
2022-08-22T19:12:07.600Z,4.30
2022-08-22T19:14:47.387Z,3.90
2022-08-22T19:17:27.706Z,4.60
2022-08-22T19:20:20.149Z,4.20
2022-08-22T19:22:51.063Z,4.40
2022-08-22T19:25:26.464Z,3.80
2022-08-22T19:28:06.481Z,3.80
2022-08-22T19:30:34.552Z,4.50
2022-08-22T19:33:13.379Z,4.90
2022-08-22T19:35:43.945Z,4.50
2022-08-22T19:38:13.128Z,4.40
2022-08-22T19:40:53.473Z,4.40
2022-08-22T19:43:31.884Z,4.50
2022-08-22T19:46:03.929Z,5.10
2022-08-22T19:48:53.111Z,4.50
2022-08-22T19:51:21.183Z,4.10
2022-08-22T19:54:01.248Z,3.70
2022-08-22T19:56:48.455Z,4.30
2022-08-22T19:59:37.730Z,4.20
2022-08-22T20:02:23.722Z,3.80
2022-08-22T20:05:10.320Z,3.30
2022-08-22T20:07:44.024Z,3.60
2022-08-22T20:10:51.315Z,3.50
2022-08-22T20:13:24.645Z,3.70
2022-08-22T20:16:10.837Z,4.90
2022-08-22T20:19:08.390Z,5.00
2022-08-22T20:22:00.803Z,5.30
2022-08-22T20:24:53.360Z,4.90
2022-08-22T20:27:35.667Z,4.80
2022-08-22T20:30:07.874Z,5.10
2022-08-22T20:33:02.018Z,5.10
2022-08-22T20:35:43.497Z,4.80
2022-08-22T20:38:17.828Z,3.80
2022-08-22T20:40:59.587Z,4.40
2022-08-22T20:43:37.930Z,3.90
2022-08-22T20:46:33.681Z,4.90
2022-08-22T20:49:04.895Z,5.00
2022-08-22T20:51:34.428Z,4.80
2022-08-22T20:54:15.883Z,6.10
2022-08-22T20:57:03.721Z,5.40
2022-08-22T20:59:41.927Z,8.40
2022-08-22T21:02:19.038Z,5.10
2022-08-22T21:04:52.742Z,4.70
2022-08-22T21:07:27.897Z,5.40
2022-08-22T21:10:43.335Z,5.30
2022-08-22T21:13:27.488Z,5.40
2022-08-22T21:15:59.865Z,5.50
2022-08-22T21:18:31.050Z,5.30
2022-08-22T21:21:27.551Z,5.60
2022-08-22T21:24:04.611Z,6.10
2022-08-22T21:26:37.210Z,6.00
2022-08-22T21:29:14.409Z,6.50
2022-08-22T21:31:47.679Z,5.90
2022-08-22T21:34:20.883Z,5.70
2022-08-22T21:36:52.500Z,5.90
2022-08-22T21:39:28.877Z,5.90
2022-08-22T21:41:59.737Z,5.70
2022-08-22T21:44:42.369Z,5.60
2022-08-22T21:47:30.794Z,5.80
2022-08-22T21:50:01.245Z,6.00
2022-08-22T21:52:35.505Z,5.30
2022-08-22T21:55:22.145Z,5.30
2022-08-22T21:58:08.855Z,5.30
2022-08-22T22:00:48.965Z,6.20
2022-08-22T22:03:25.484Z,5.00
2022-08-22T22:05:57.924Z,5.50
2022-08-22T22:08:29.146Z,5.50
2022-08-22T22:11:02.961Z,4.90
2022-08-22T22:13:34.561Z,5.10
2022-08-22T22:16:03.350Z,5.20
2022-08-22T22:18:33.157Z,5.10
2022-08-22T22:21:01.643Z,4.50
2022-08-22T22:23:30.131Z,4.90
2022-08-22T22:26:01.556Z,4.50
2022-08-22T22:28:33.539Z,5.30
2022-08-22T22:31:01.709Z,4.90
2022-08-22T22:33:33.178Z,4.30
2022-08-22T22:36:26.222Z,5.20
2022-08-22T22:38:55.204Z,4.10
2022-08-22T22:41:25.780Z,4.20
2022-08-22T22:43:54.939Z,4.40
2022-08-22T22:46:23.882Z,4.50
2022-08-22T22:48:52.107Z,3.90
2022-08-22T22:51:20.279Z,3.90
2022-08-22T22:53:48.556Z,4.30
2022-08-22T22:56:22.446Z,4.40
2022-08-22T22:59:01.018Z,4.20
2022-08-22T23:02:10.530Z,3.80
2022-08-22T23:04:41.618Z,4.50
2022-08-22T23:07:11.489Z,4.70
2022-08-22T23:09:44.613Z,4.40
2022-08-22T23:12:14.799Z,4.60
2022-08-22T23:14:43.172Z,4.70
2022-08-22T23:17:11.655Z,4.90
2022-08-22T23:19:40.754Z,4.30
2022-08-22T23:22:10.972Z,5.30
2022-08-22T23:24:40.319Z,4.80
2022-08-22T23:27:10.602Z,4.30
2022-08-22T23:29:41.259Z,4.90
2022-08-22T23:32:10.858Z,5.00
2022-08-22T23:34:46.106Z,4.80
2022-08-22T23:37:19.066Z,4.30
2022-08-22T23:39:48.512Z,4.20
2022-08-22T23:42:18.268Z,4.00
2022-08-22T23:44:47.951Z,4.40
2022-08-22T23:47:16.163Z,4.00
2022-08-22T23:49:44.271Z,3.90
2022-08-22T23:52:13.745Z,4.20
2022-08-22T23:54:42.124Z,4.10
2022-08-22T23:57:12.080Z,4.20
2022-08-22T23:59:48.496Z,4.20
